createdAt,value
2023-03-04T00:03:50.466Z,1.80
2023-03-04T00:08:54.590Z,1.58
2023-03-04T00:13:57.855Z,1.83
2023-03-04T00:19:00.606Z,1.60
2023-03-04T00:24:04.782Z,1.70
2023-03-04T00:29:07.894Z,1.38
2023-03-04T00:34:10.630Z,1.58
2023-03-04T00:39:16.470Z,1.80
2023-03-04T00:44:19.250Z,1.88
2023-03-04T00:49:22.293Z,1.40
2023-03-04T00:54:27.233Z,1.38
2023-03-04T00:59:30.393Z,1.55
2023-03-04T01:04:33.230Z,1.20
2023-03-04T01:09:37.443Z,1.20
2023-03-04T01:14:40.240Z,1.27
2023-03-04T01:19:42.994Z,1.10
2023-03-04T01:24:47.229Z,1.35
2023-03-04T01:29:49.940Z,1.60
2023-03-04T01:34:52.724Z,1.30
2023-03-04T01:39:56.835Z,1.60
2023-03-04T01:44:59.706Z,1.10
2023-03-04T01:50:06.191Z,1.25
2023-03-04T01:55:16.323Z,1.20
2023-03-04T02:00:30.761Z,1.70
2023-03-04T02:05:33.726Z,1.40
2023-03-04T02:10:38.778Z,1.50
2023-03-04T02:15:42.325Z,1.60
2023-03-04T02:20:57.415Z,1.63
2023-03-04T02:26:26.066Z,1.10
2023-03-04T02:31:34.195Z,1.23
2023-03-04T02:36:37.736Z,1.00
2023-03-04T02:41:44.169Z,1.67
2023-03-04T02:46:49.105Z,1.60
2023-03-04T02:51:54.027Z,1.15
2023-03-04T02:57:00.786Z,1.33
2023-03-04T03:02:05.214Z,1.30
2023-03-04T03:07:09.773Z,1.58
2023-03-04T03:12:13.985Z,1.92
2023-03-04T03:17:16.849Z,1.10
2023-03-04T03:22:20.561Z,1.75
2023-03-04T03:27:25.280Z,1.73
2023-03-04T03:32:28.731Z,1.60
2023-03-04T03:37:31.692Z,1.67
2023-03-04T03:42:35.788Z,1.70
2023-03-04T03:47:38.524Z,1.38
2023-03-04T03:52:41.266Z,2.83
2023-03-04T03:57:45.379Z,1.60
2023-03-04T04:02:48.188Z,1.90
2023-03-04T04:07:53.701Z,1.58
2023-03-04T04:12:58.121Z,1.35
2023-03-04T04:18:00.946Z,1.52
2023-03-04T04:23:04.422Z,2.08
2023-03-04T04:28:08.519Z,1.42
2023-03-04T04:33:11.897Z,1.20
2023-03-04T04:38:14.708Z,2.15
2023-03-04T04:43:18.834Z,1.25
2023-03-04T04:48:21.587Z,1.10
2023-03-04T04:53:24.410Z,1.50
2023-03-04T04:58:28.584Z,2.10
2023-03-04T05:03:31.410Z,1.60
2023-03-04T05:08:34.677Z,1.55
2023-03-04T05:13:38.839Z,1.27
2023-03-04T05:18:41.610Z,3.15
2023-03-04T05:23:45.617Z,2.13
2023-03-04T05:28:49.800Z,2.33
2023-03-04T05:33:53.040Z,2.10
2023-03-04T05:38:55.835Z,2.40
2023-03-04T05:43:59.993Z,3.72
2023-03-04T05:49:02.714Z,2.55
2023-03-04T05:54:05.565Z,2.88
2023-03-04T05:59:09.661Z,3.53
2023-03-04T06:04:12.529Z,3.03
2023-03-04T06:09:15.352Z,3.72
2023-03-04T06:14:19.857Z,3.40
2023-03-04T06:19:22.792Z,3.58
2023-03-04T06:24:25.544Z,4.05
2023-03-04T06:29:30.068Z,3.55
2023-03-04T06:34:33.859Z,4.18
2023-03-04T06:39:36.630Z,3.80
2023-03-04T06:44:40.822Z,3.92
2023-03-04T06:49:43.583Z,3.20
2023-03-04T06:54:46.397Z,2.20
2023-03-04T06:59:50.570Z,3.47
2023-03-04T07:04:53.553Z,2.60
2023-03-04T07:09:56.317Z,2.10
2023-03-04T07:15:00.428Z,2.72
2023-03-04T07:20:03.357Z,2.50
2023-03-04T07:25:07.292Z,2.70
2023-03-04T07:30:13.083Z,2.42
2023-03-04T07:35:16.167Z,2.25
2023-03-04T07:40:19.375Z,1.83
2023-03-04T07:45:24.733Z,2.80
2023-03-04T07:50:27.479Z,3.53
2023-03-04T07:55:31.558Z,2.30
2023-03-04T08:00:35.908Z,2.92
2023-03-04T08:05:40.301Z,3.15
2023-03-04T08:10:43.555Z,2.75
2023-03-04T08:15:47.710Z,2.90
2023-03-04T08:20:50.601Z,3.20
2023-03-04T08:25:53.344Z,2.85
2023-03-04T08:30:57.563Z,2.58
2023-03-04T08:36:00.899Z,2.65
2023-03-04T08:41:04.358Z,2.35
2023-03-04T08:46:08.939Z,2.72
2023-03-04T08:51:14.511Z,4.00
2023-03-04T08:56:17.299Z,3.72
2023-03-04T09:01:21.494Z,2.83
2023-03-04T09:06:24.380Z,3.33
2023-03-04T09:11:27.126Z,3.13
2023-03-04T09:16:31.367Z,3.10
2023-03-04T09:21:34.151Z,5.60
2023-03-04T09:26:37.046Z,3.35
2023-03-04T09:31:41.248Z,3.90
2023-03-04T09:36:44.317Z,3.47
2023-03-04T09:41:49.736Z,3.60
2023-03-04T09:46:55.674Z,3.28
2023-03-04T09:52:04.287Z,3.67
2023-03-04T09:57:24.790Z,3.00
2023-03-04T10:02:38.399Z,2.85
2023-03-04T10:07:44.481Z,3.03
2023-03-04T10:12:49.887Z,3.30
2023-03-04T10:18:00.860Z,3.90
2023-03-04T10:23:11.817Z,2.70
2023-03-04T10:28:18.757Z,3.00
2023-03-04T10:33:26.550Z,2.92
2023-03-04T10:38:33.539Z,3.35
2023-03-04T10:43:36.488Z,3.78
2023-03-04T10:48:42.400Z,3.55
2023-03-04T10:53:45.607Z,3.60
2023-03-04T10:58:48.386Z,3.17
2023-03-04T11:03:54.751Z,3.25
2023-03-04T11:08:59.234Z,2.30
2023-03-04T11:14:05.797Z,3.08
2023-03-04T11:19:17.447Z,2.53
2023-03-04T11:24:29.055Z,3.17
2023-03-04T11:29:38.867Z,3.20
2023-03-04T11:34:47.912Z,2.85
2023-03-04T11:39:55.870Z,2.58
2023-03-04T11:44:58.934Z,3.40
2023-03-04T11:50:16.345Z,3.08
2023-03-04T11:55:35.042Z,3.88
2023-03-04T12:00:44.534Z,3.00
2023-03-04T12:05:59.236Z,3.15
2023-03-04T12:11:06.691Z,3.10
2023-03-04T12:16:24.130Z,3.08
2023-03-04T12:21:42.596Z,2.58
2023-03-04T12:26:52.033Z,2.13
2023-03-04T12:32:05.242Z,3.83
2023-03-04T12:37:33.427Z,2.80
2023-03-04T12:42:47.059Z,2.95
2023-03-04T12:47:57.538Z,3.47
2023-03-04T12:53:13.864Z,2.90
2023-03-04T12:58:19.304Z,3.33
2023-03-04T13:03:33.701Z,2.75
2023-03-04T13:08:51.163Z,2.97
2023-03-04T13:14:03.277Z,3.40
2023-03-04T13:19:50.913Z,2.67
2023-03-04T13:24:54.840Z,2.78
2023-03-04T13:29:58.063Z,3.28
2023-03-04T13:35:02.179Z,2.60
2023-03-04T13:40:36.994Z,2.63
2023-03-04T13:45:40.112Z,2.28
2023-03-04T13:50:47.635Z,2.20
2023-03-04T13:56:11.252Z,2.70
2023-03-04T14:01:30.343Z,3.45
2023-03-04T14:06:34.389Z,2.85
2023-03-04T14:11:42.648Z,2.50
2023-03-04T14:16:50.386Z,2.33
2023-03-04T14:21:55.074Z,2.50
2023-03-04T14:27:15.726Z,2.50
2023-03-04T14:32:18.530Z,2.40
2023-03-04T14:37:25.671Z,2.13
2023-03-04T14:42:42.178Z,2.17
2023-03-04T14:47:47.675Z,1.75
2023-03-04T14:53:05.275Z,2.30
2023-03-04T14:58:10.389Z,1.77
2023-03-04T15:03:21.938Z,2.15
2023-03-04T15:08:29.605Z,2.20
2023-03-04T15:13:39.421Z,2.20
2023-03-04T15:18:55.691Z,1.83
2023-03-04T15:24:00.049Z,1.77
2023-03-04T15:29:05.211Z,2.67
2023-03-04T15:34:14.101Z,2.28
2023-03-04T15:39:21.585Z,2.25
2023-03-04T15:44:24.356Z,2.20
2023-03-04T15:49:27.554Z,2.08
2023-03-04T15:54:31.814Z,2.00
2023-03-04T15:59:34.535Z,3.28
2023-03-04T16:04:38.869Z,1.85
2023-03-04T16:09:43.052Z,1.88
2023-03-04T16:14:46.988Z,2.08
2023-03-04T16:19:49.862Z,2.30
2023-03-04T16:24:55.362Z,1.70
2023-03-04T16:29:58.231Z,2.08
2023-03-04T16:35:01.566Z,2.00
2023-03-04T16:40:07.641Z,2.00
2023-03-04T16:45:16.101Z,2.40
2023-03-04T16:55:26.259Z,2.17
2023-03-04T17:00:30.039Z,1.95
2023-03-04T17:05:33.828Z,1.90
2023-03-04T17:10:38.018Z,1.80
2023-03-04T17:15:42.703Z,1.88
2023-03-04T17:20:45.468Z,1.80
2023-03-04T17:25:56.272Z,2.03
2023-03-04T17:30:59.071Z,1.80
2023-03-04T17:36:01.849Z,2.50
2023-03-04T17:41:06.652Z,1.90
2023-03-04T17:46:13.241Z,2.40
2023-03-04T17:51:16.686Z,1.88
2023-03-04T17:56:20.824Z,1.73
2023-03-04T18:01:23.902Z,1.98
2023-03-04T18:06:26.862Z,2.45
2023-03-04T18:11:31.315Z,1.67
2023-03-04T18:16:35.181Z,1.75
2023-03-04T18:21:38.139Z,1.63
2023-03-04T18:26:42.338Z,2.10
2023-03-04T18:31:45.399Z,2.20
2023-03-04T18:36:48.616Z,1.40
2023-03-04T18:41:52.671Z,2.13
2023-03-04T18:46:57.747Z,1.58
2023-03-04T18:52:00.907Z,2.47
2023-03-04T18:57:10.382Z,2.30
2023-03-04T19:02:19.982Z,1.92
2023-03-04T19:07:23.761Z,2.28
2023-03-04T19:12:27.916Z,2.10
2023-03-04T19:17:32.639Z,2.80
2023-03-04T19:22:35.869Z,2.60
2023-03-04T19:27:40.055Z,2.13
2023-03-04T19:32:43.388Z,2.50
2023-03-04T19:37:46.261Z,2.45
2023-03-04T19:42:50.431Z,1.90
2023-03-04T19:47:53.225Z,2.33
2023-03-04T19:52:56.220Z,1.88
2023-03-04T19:58:00.371Z,2.03
2023-03-04T20:03:04.956Z,1.85
2023-03-04T20:08:07.725Z,2.42
2023-03-04T20:13:11.805Z,2.20
2023-03-04T20:18:14.590Z,1.95
2023-03-04T20:23:20.252Z,2.10
2023-03-04T20:28:24.920Z,2.33
2023-03-04T20:33:27.677Z,1.50
2023-03-04T20:38:30.448Z,1.58
2023-03-04T20:43:34.511Z,1.63
2023-03-04T20:48:37.335Z,1.60
2023-03-04T20:53:40.548Z,1.75
2023-03-04T20:58:46.241Z,1.83
2023-03-04T21:03:49.716Z,2.00
2023-03-04T21:08:52.693Z,1.65
2023-03-04T21:13:57.757Z,1.90
2023-03-04T21:19:00.744Z,1.73
2023-03-04T21:24:03.790Z,1.42
2023-03-04T21:29:07.973Z,1.50
2023-03-04T21:34:16.667Z,2.10
2023-03-04T21:39:21.722Z,1.83
2023-03-04T21:44:38.554Z,1.42
2023-03-04T21:49:50.806Z,2.47
2023-03-04T21:54:55.800Z,2.50
2023-03-04T22:00:00.279Z,1.25
2023-03-04T22:05:03.047Z,2.00
2023-03-04T22:10:07.202Z,1.42
2023-03-04T22:15:12.355Z,1.33
2023-03-04T22:20:34.125Z,1.58
2023-03-04T22:25:38.677Z,1.20
2023-03-04T22:30:42.790Z,1.50
2023-03-04T22:35:45.583Z,1.27
2023-03-04T22:40:50.045Z,2.17
2023-03-04T22:45:54.279Z,1.55
2023-03-04T22:50:57.009Z,1.63
2023-03-04T22:56:00.323Z,1.60
2023-03-04T23:01:05.467Z,1.50
2023-03-04T23:06:10.272Z,1.20
2023-03-04T23:11:14.979Z,1.30
2023-03-04T23:16:20.126Z,2.13
2023-03-04T23:21:24.778Z,1.35
2023-03-04T23:26:29.353Z,1.40
2023-03-04T23:31:34.661Z,1.05
2023-03-04T23:36:38.059Z,1.48
2023-03-04T23:41:40.923Z,1.20
2023-03-04T23:46:44.994Z,1.10
2023-03-04T23:51:47.785Z,1.42
2023-03-04T23:56:50.740Z,1.08
